createdAt,value
2022-09-28T00:00:05.745Z,16.52
2022-09-28T00:00:27.747Z,15.20
2022-09-28T00:00:49.976Z,14.15
2022-09-28T00:01:16.791Z,15.02
2022-09-28T00:01:39.776Z,14.00
2022-09-28T00:02:02.311Z,14.55
2022-09-28T00:02:26.634Z,14.75
2022-09-28T00:02:48.876Z,15.43
2022-09-28T00:03:11.309Z,13.57
2022-09-28T00:03:33.494Z,13.52
2022-09-28T00:03:59.905Z,13.27
2022-09-28T00:04:23.071Z,15.57
2022-09-28T00:04:45.186Z,15.07
2022-09-28T00:05:07.475Z,16.08
2022-09-28T00:05:29.938Z,15.27
2022-09-28T00:05:51.950Z,14.30
2022-09-28T00:06:16.293Z,13.88
2022-09-28T00:06:39.027Z,13.02
2022-09-28T00:07:02.590Z,12.38
2022-09-28T00:07:25.023Z,13.43
2022-09-28T00:07:46.991Z,12.82
2022-09-28T00:08:09.205Z,13.50
2022-09-28T00:08:32.745Z,14.00
2022-09-28T00:08:55.612Z,13.23
2022-09-28T00:09:18.045Z,15.68
2022-09-28T00:09:40.032Z,13.65
2022-09-28T00:10:01.911Z,13.82
2022-09-28T00:10:23.789Z,14.23
2022-09-28T00:10:54.295Z,13.85
2022-09-28T00:11:18.854Z,15.35
2022-09-28T00:11:40.801Z,14.57
2022-09-28T00:12:03.038Z,13.98
2022-09-28T00:12:25.313Z,14.00
2022-09-28T00:12:47.333Z,14.93
2022-09-28T00:13:09.519Z,14.75
2022-09-28T00:13:33.269Z,14.77
2022-09-28T00:13:57.832Z,14.05
2022-09-28T00:14:20.785Z,14.27
2022-09-28T00:14:44.609Z,15.23
2022-09-28T00:15:07.040Z,15.48
2022-09-28T00:15:29.474Z,14.73
2022-09-28T00:16:15.875Z,13.70
2022-09-28T00:16:43.832Z,14.95
2022-09-28T00:17:06.788Z,14.98
2022-09-28T00:17:28.648Z,16.73
2022-09-28T00:17:50.668Z,15.93
2022-09-28T00:18:12.355Z,12.52
2022-09-28T00:18:36.236Z,12.68
2022-09-28T00:18:58.529Z,12.52
2022-09-28T00:19:20.398Z,15.25
2022-09-28T00:19:43.939Z,13.68
2022-09-28T00:20:06.552Z,12.90
2022-09-28T00:20:28.324Z,12.93
2022-09-28T00:21:05.644Z,14.75
2022-09-28T00:21:31.286Z,17.00
2022-09-28T00:21:53.019Z,14.88
2022-09-28T00:22:14.840Z,13.70
2022-09-28T00:22:36.573Z,14.02
2022-09-28T00:22:58.478Z,14.82
2022-09-28T00:23:20.214Z,14.80
2022-09-28T00:24:01.443Z,14.70
2022-09-28T00:24:27.483Z,14.95
2022-09-28T00:24:49.590Z,14.52
2022-09-28T00:25:11.587Z,15.43
2022-09-28T00:25:33.374Z,15.15
2022-09-28T00:25:55.131Z,14.63
2022-09-28T00:26:16.969Z,14.43
2022-09-28T00:26:51.248Z,15.32
2022-09-28T00:27:13.128Z,14.23
2022-09-28T00:27:34.905Z,15.52
2022-09-28T00:27:57.215Z,14.68
2022-09-28T00:28:19.221Z,15.48
2022-09-28T00:28:41.084Z,16.83
2022-09-28T00:29:03.802Z,15.27
2022-09-28T00:29:32.786Z,14.73
2022-09-28T00:29:55.046Z,15.43
2022-09-28T00:30:17.025Z,15.02
2022-09-28T00:30:38.730Z,14.80
2022-09-28T00:31:01.106Z,14.40
2022-09-28T00:31:25.285Z,16.47
2022-09-28T00:31:48.989Z,15.20
2022-09-28T00:32:13.342Z,15.73
2022-09-28T00:32:35.980Z,14.85
2022-09-28T00:32:57.768Z,16.10
2022-09-28T00:33:19.844Z,14.63
2022-09-28T00:33:42.066Z,14.07
2022-09-28T00:34:06.435Z,15.23
2022-09-28T00:34:32.669Z,15.57
2022-09-28T00:34:55.105Z,14.98
2022-09-28T00:35:16.939Z,14.77
2022-09-28T00:35:38.826Z,14.15
2022-09-28T00:36:00.718Z,15.52
2022-09-28T00:36:24.830Z,16.83
2022-09-28T00:36:48.210Z,14.48
2022-09-28T00:37:10.421Z,15.02
2022-09-28T00:37:32.647Z,14.20
2022-09-28T00:37:54.431Z,15.13
2022-09-28T00:38:16.727Z,15.98
2022-09-28T00:38:40.766Z,14.80
2022-09-28T00:39:09.286Z,15.25
2022-09-28T00:39:36.010Z,14.63
2022-09-28T00:39:57.973Z,16.52
2022-09-28T00:40:19.930Z,16.23
2022-09-28T00:40:42.408Z,15.68
2022-09-28T00:41:05.168Z,17.48
2022-09-28T00:41:28.510Z,17.08
2022-09-28T00:41:51.208Z,16.48
2022-09-28T00:42:23.141Z,14.27
2022-09-28T00:42:45.180Z,17.27
2022-09-28T00:43:23.039Z,16.60
2022-09-28T00:43:44.795Z,15.63
2022-09-28T00:44:24.548Z,15.52
2022-09-28T00:44:56.892Z,16.60
2022-09-28T00:45:18.969Z,17.73
2022-09-28T00:45:41.064Z,16.48
2022-09-28T00:46:06.733Z,17.52
2022-09-28T00:46:34.435Z,16.00
2022-09-28T00:47:09.470Z,16.52
2022-09-28T00:47:54.995Z,14.57
2022-09-28T00:48:16.692Z,16.27
2022-09-28T00:48:43.626Z,18.15
2022-09-28T00:49:11.428Z,17.98
2022-09-28T00:49:36.418Z,17.95
2022-09-28T00:50:10.407Z,17.17
2022-09-28T00:50:35.572Z,16.70
2022-09-28T00:50:59.277Z,15.43
2022-09-28T00:51:22.895Z,16.27
2022-09-28T00:51:46.295Z,17.88
2022-09-28T00:52:09.830Z,19.58
2022-09-28T00:52:40.854Z,17.90
2022-09-28T00:53:05.650Z,19.85
2022-09-28T00:53:32.047Z,18.45
2022-09-28T00:53:56.212Z,16.98
2022-09-28T00:54:18.074Z,19.33
2022-09-28T00:54:41.434Z,17.63
2022-09-28T00:55:08.824Z,16.38
2022-09-28T00:55:38.602Z,18.70
2022-09-28T00:56:05.051Z,17.70
2022-09-28T00:56:29.437Z,20.70
2022-09-28T00:56:51.899Z,18.80
2022-09-28T00:57:15.109Z,17.45
2022-09-28T00:57:39.192Z,17.50
2022-09-28T00:58:03.813Z,18.00
2022-09-28T00:58:29.920Z,17.70
2022-09-28T00:58:54.625Z,19.67
2022-09-28T00:59:16.761Z,17.73
2022-09-28T00:59:38.996Z,19.80
2022-09-28T01:00:02.860Z,18.98
2022-09-28T01:00:24.968Z,19.38
2022-09-28T01:00:48.399Z,18.50
2022-09-28T01:01:10.451Z,18.73
2022-09-28T01:01:32.263Z,20.92
2022-09-28T01:01:54.686Z,20.00
2022-09-28T01:02:16.737Z,20.50
2022-09-28T01:02:38.822Z,19.30
2022-09-28T01:03:01.041Z,18.65
2022-09-28T01:03:23.097Z,19.88
2022-09-28T01:03:48.031Z,17.40
2022-09-28T01:04:10.237Z,18.98
2022-09-28T01:04:32.276Z,18.52
2022-09-28T01:04:55.562Z,18.95
2022-09-28T01:05:18.948Z,17.88
2022-09-28T01:05:41.492Z,18.33
2022-09-28T01:06:05.305Z,18.30
2022-09-28T01:06:31.023Z,17.60
2022-09-28T01:06:52.848Z,19.98
2022-09-28T01:07:19.442Z,18.55
2022-09-28T01:07:43.368Z,18.48
2022-09-28T01:08:05.689Z,20.38
2022-09-28T01:08:29.863Z,21.38
2022-09-28T01:08:55.617Z,18.42
2022-09-28T01:09:18.958Z,17.98
2022-09-28T01:09:40.891Z,17.95
2022-09-28T01:10:04.524Z,19.95
2022-09-28T01:10:30.256Z,19.63
2022-09-28T01:10:52.301Z,19.98
2022-09-28T01:11:14.176Z,19.15
2022-09-28T01:11:38.605Z,21.45
2022-09-28T01:12:01.282Z,20.33
2022-09-28T01:12:23.076Z,17.63
2022-09-28T01:12:44.945Z,20.38
2022-09-28T01:13:07.435Z,20.88
2022-09-28T01:13:31.794Z,21.13
2022-09-28T01:13:56.495Z,19.40
2022-09-28T01:14:19.363Z,21.20
2022-09-28T01:14:42.295Z,21.45
2022-09-28T01:15:05.584Z,18.73
2022-09-28T01:15:28.741Z,18.33
2022-09-28T01:16:25.070Z,19.52
2022-09-28T01:16:55.150Z,14.48
2022-09-28T01:17:25.574Z,13.38
2022-09-28T01:18:13.203Z,13.05
2022-09-28T01:18:40.363Z,14.48
2022-09-28T01:19:23.194Z,13.00
2022-09-28T01:19:56.903Z,10.60
2022-09-28T01:20:26.903Z,11.23
2022-09-28T01:20:59.654Z,11.50
2022-09-28T01:21:25.336Z,9.70
2022-09-28T01:22:04.509Z,9.15
2022-09-28T01:22:29.286Z,8.50
2022-09-28T01:23:15.469Z,7.43
2022-09-28T01:24:11.226Z,9.90
2022-09-28T01:25:14.978Z,8.70
2022-09-28T01:26:00.469Z,7.57
2022-09-28T01:26:39.973Z,7.78
2022-09-28T01:27:21.242Z,6.32
2022-09-28T01:27:49.632Z,6.03
2022-09-28T01:28:15.545Z,5.32
2022-09-28T01:28:37.559Z,5.18
2022-09-28T01:29:17.327Z,5.00
2022-09-28T01:29:52.970Z,5.47
2022-09-28T01:30:20.090Z,5.40
2022-09-28T01:30:53.340Z,5.32
2022-09-28T01:31:17.318Z,4.63
2022-09-28T01:31:41.962Z,4.97
2022-09-28T01:32:30.480Z,5.20
2022-09-28T01:32:52.375Z,4.77
2022-09-28T01:33:22.643Z,4.78
2022-09-28T01:34:13.112Z,3.72
2022-09-28T01:34:57.810Z,3.50
2022-09-28T01:35:25.195Z,4.70
2022-09-28T01:36:05.213Z,4.80
2022-09-28T01:36:53.609Z,4.68
2022-09-28T01:37:18.676Z,5.00
2022-09-28T01:38:02.814Z,5.30
2022-09-28T01:38:33.248Z,4.55
2022-09-28T01:39:08.141Z,3.65
2022-09-28T01:39:36.222Z,3.45
2022-09-28T01:40:03.076Z,3.70
2022-09-28T01:40:27.979Z,4.15
2022-09-28T01:40:51.257Z,3.50
2022-09-28T01:41:13.943Z,3.83
2022-09-28T01:41:38.388Z,3.88
2022-09-28T01:42:08.256Z,4.18
2022-09-28T01:42:33.072Z,5.20
2022-09-28T01:43:01.002Z,4.22
2022-09-28T01:43:29.732Z,3.38
2022-09-28T01:43:57.471Z,4.20
2022-09-28T01:44:22.929Z,3.65
2022-09-28T01:44:48.538Z,3.70
2022-09-28T01:45:17.074Z,3.63
2022-09-28T01:45:48.333Z,4.00
2022-09-28T01:46:44.953Z,3.80
2022-09-28T01:47:10.868Z,4.22
2022-09-28T01:47:37.164Z,3.40
2022-09-28T01:48:06.075Z,4.05
2022-09-28T01:48:37.473Z,4.72
2022-09-28T01:49:10.935Z,3.78
2022-09-28T01:49:39.086Z,4.05
2022-09-28T01:50:11.029Z,4.10
2022-09-28T01:50:39.779Z,4.25
2022-09-28T01:51:06.959Z,4.03
2022-09-28T01:52:07.690Z,4.13
2022-09-28T01:52:35.376Z,4.10
2022-09-28T01:53:10.842Z,4.75
2022-09-28T01:53:49.897Z,5.28
2022-09-28T01:54:37.755Z,3.50
2022-09-28T01:55:06.133Z,3.70
2022-09-28T01:55:39.003Z,3.40
2022-09-28T01:56:08.450Z,3.85
2022-09-28T01:56:42.784Z,4.20
2022-09-28T01:57:42.185Z,3.65
2022-09-28T01:58:12.419Z,3.97
2022-09-28T01:58:46.524Z,3.78
2022-09-28T01:59:16.761Z,4.28
2022-09-28T01:59:43.705Z,3.28
2022-09-28T02:00:12.111Z,3.85
2022-09-28T02:00:36.235Z,3.35
2022-09-28T02:01:04.769Z,3.92
2022-09-28T02:01:52.797Z,4.07
2022-09-28T02:02:25.223Z,3.28
2022-09-28T02:02:48.271Z,3.65
2022-09-28T02:03:18.070Z,3.58
2022-09-28T02:04:02.411Z,3.25
2022-09-28T02:04:50.951Z,3.53
2022-09-28T02:05:18.507Z,3.42
2022-09-28T02:05:42.389Z,3.20
2022-09-28T02:06:19.001Z,3.55
2022-09-28T02:07:05.548Z,3.70
2022-09-28T02:07:37.648Z,4.07
2022-09-28T02:10:07.274Z,3.13
2022-09-28T02:10:38.094Z,2.42
2022-09-28T02:11:14.534Z,2.50
2022-09-28T02:11:40.398Z,2.30
2022-09-28T02:12:09.257Z,2.80
2022-09-28T02:12:36.775Z,2.35
2022-09-28T02:13:08.461Z,2.42
2022-09-28T02:13:35.754Z,2.35
2022-09-28T02:14:08.137Z,2.22
2022-09-28T02:14:30.889Z,2.65
2022-09-28T02:14:56.842Z,2.15
2022-09-28T02:15:25.882Z,3.20
2022-09-28T02:16:17.254Z,1.90
2022-09-28T02:16:47.527Z,2.35
2022-09-28T02:17:10.195Z,2.65
2022-09-28T02:17:31.995Z,3.15
2022-09-28T02:17:54.725Z,2.42
2022-09-28T02:18:16.744Z,2.33
2022-09-28T02:18:38.570Z,2.38
2022-09-28T02:19:01.419Z,2.05
2022-09-28T02:19:26.266Z,2.00
2022-09-28T02:19:48.218Z,2.30
2022-09-28T02:20:11.165Z,1.73
2022-09-28T02:20:36.627Z,1.92
2022-09-28T02:21:11.611Z,1.75
2022-09-28T02:21:55.637Z,1.95
2022-09-28T02:22:28.161Z,1.95
2022-09-28T02:22:54.128Z,2.20
2022-09-28T02:23:17.420Z,2.95
2022-09-28T02:23:43.368Z,1.95
2022-09-28T02:24:35.348Z,2.15
2022-09-28T02:25:04.018Z,3.60
2022-09-28T02:25:35.352Z,1.70
2022-09-28T02:26:03.648Z,3.10
2022-09-28T02:26:31.790Z,1.90
2022-09-28T02:26:57.463Z,2.40
2022-09-28T02:27:24.731Z,2.58
2022-09-28T02:27:52.382Z,3.35
2022-09-28T02:28:14.418Z,2.42
2022-09-28T02:28:36.240Z,2.40
2022-09-28T02:28:59.360Z,2.75
2022-09-28T02:29:21.260Z,3.25
2022-09-28T02:29:43.042Z,2.08
2022-09-28T02:30:06.491Z,2.17
2022-09-28T02:30:30.998Z,2.65
2022-09-28T02:30:53.048Z,2.60
2022-09-28T02:31:14.804Z,2.83
2022-09-28T02:31:36.774Z,2.88
2022-09-28T02:31:58.645Z,2.92
2022-09-28T02:32:21.067Z,2.05
2022-09-28T02:32:47.959Z,2.42
2022-09-28T02:33:24.792Z,2.05
2022-09-28T02:33:48.001Z,1.83
2022-09-28T02:34:09.751Z,2.33
2022-09-28T02:34:31.575Z,2.58
2022-09-28T02:34:55.278Z,2.33
2022-09-28T02:35:18.771Z,2.65
2022-09-28T02:35:42.794Z,2.00
2022-09-28T02:36:07.213Z,2.45
2022-09-28T02:36:29.841Z,3.13
2022-09-28T02:36:51.942Z,2.85
2022-09-28T02:37:13.968Z,1.70
2022-09-28T02:37:36.044Z,2.22
2022-09-28T02:37:58.029Z,2.00
2022-09-28T02:38:20.913Z,2.65
2022-09-28T02:38:42.770Z,2.83
2022-09-28T02:39:04.589Z,2.53
2022-09-28T02:39:26.923Z,2.80
2022-09-28T02:39:48.834Z,3.83
2022-09-28T02:40:20.814Z,2.65
2022-09-28T02:40:48.022Z,2.10
2022-09-28T02:41:31.639Z,3.05
2022-09-28T02:42:13.499Z,2.75
2022-09-28T02:42:56.084Z,1.45
2022-09-28T02:43:25.542Z,2.85
2022-09-28T02:43:58.253Z,1.83
2022-09-28T02:44:45.542Z,1.92
2022-09-28T02:45:37.334Z,2.35
2022-09-28T02:46:23.939Z,1.73
2022-09-28T02:47:04.443Z,2.83
2022-09-28T02:47:29.032Z,2.17
2022-09-28T02:48:04.446Z,2.45
2022-09-28T02:48:55.700Z,3.25
2022-09-28T02:49:37.068Z,1.70
2022-09-28T02:50:16.716Z,2.08
2022-09-28T02:51:03.140Z,1.65
2022-09-28T02:51:47.214Z,2.10
2022-09-28T02:52:08.895Z,1.60
2022-09-28T02:52:45.984Z,2.20
2022-09-28T02:53:22.300Z,2.17
2022-09-28T02:54:04.750Z,1.73
2022-09-28T02:54:53.046Z,1.70
2022-09-28T02:55:40.536Z,1.65
2022-09-28T02:56:35.947Z,2.00
2022-09-28T02:57:27.946Z,2.28
2022-09-28T02:58:19.667Z,1.83
2022-09-28T02:59:07.519Z,1.75
2022-09-28T02:59:50.664Z,1.83
2022-09-28T03:00:20.028Z,2.03
2022-09-28T03:00:47.147Z,1.90
2022-09-28T03:01:42.145Z,1.63
2022-09-28T03:02:34.156Z,1.52
2022-09-28T03:03:09.263Z,1.88
2022-09-28T03:04:21.801Z,1.48
2022-09-28T03:05:07.926Z,2.17
2022-09-28T03:05:53.508Z,2.20
2022-09-28T03:06:30.639Z,2.67
2022-09-28T03:07:09.649Z,2.17
2022-09-28T03:08:00.015Z,2.38
2022-09-28T03:08:45.085Z,2.53
2022-09-28T03:09:16.376Z,2.38
2022-09-28T03:09:49.826Z,2.33
2022-09-28T03:10:22.017Z,4.85
2022-09-28T03:10:53.313Z,6.13
2022-09-28T03:11:26.806Z,5.18
2022-09-28T03:11:53.920Z,5.43
2022-09-28T03:12:18.729Z,6.35
2022-09-28T03:12:43.161Z,7.05
2022-09-28T03:13:06.234Z,6.80
2022-09-28T03:13:29.108Z,6.15
2022-09-28T03:13:52.397Z,7.70
2022-09-28T03:14:14.924Z,5.57
2022-09-28T03:14:38.409Z,6.50
2022-09-28T03:15:07.996Z,8.07
2022-09-28T03:15:32.171Z,7.40
2022-09-28T03:16:11.847Z,7.32
2022-09-28T03:16:33.789Z,4.60
2022-09-28T03:16:55.722Z,4.15
2022-09-28T03:17:20.915Z,4.82
2022-09-28T03:17:42.666Z,4.38
2022-09-28T03:18:05.118Z,3.53
2022-09-28T03:18:26.854Z,4.07
2022-09-28T03:18:49.075Z,4.43
2022-09-28T03:19:13.156Z,5.38
2022-09-28T03:19:38.118Z,4.93
2022-09-28T03:19:59.823Z,5.85
2022-09-28T03:20:21.761Z,3.15
2022-09-28T03:20:43.520Z,2.78
2022-09-28T03:21:06.420Z,2.60
2022-09-28T03:21:28.198Z,3.13
2022-09-28T03:21:49.982Z,3.30
2022-09-28T03:22:11.976Z,4.57
2022-09-28T03:22:33.757Z,4.93
2022-09-28T03:23:22.721Z,5.20
2022-09-28T03:23:38.120Z,5.38
2022-09-28T03:24:00.108Z,4.72
2022-09-28T03:24:21.940Z,6.18
2022-09-28T03:24:43.869Z,7.18
2022-09-28T03:25:09.082Z,4.68
2022-09-28T03:25:31.104Z,4.63
2022-09-28T03:25:53.110Z,4.85
2022-09-28T03:26:16.527Z,4.28
2022-09-28T03:26:39.121Z,4.07
2022-09-28T03:27:01.098Z,4.18
2022-09-28T03:27:22.927Z,5.10
2022-09-28T03:27:45.110Z,7.18
2022-09-28T03:28:07.013Z,6.97
2022-09-28T03:28:30.591Z,5.55
2022-09-28T03:28:52.278Z,6.88
2022-09-28T03:29:14.054Z,7.32
2022-09-28T03:29:35.794Z,5.97
2022-09-28T03:29:57.684Z,4.60
2022-09-28T03:30:19.709Z,5.25
2022-09-28T03:30:43.570Z,5.40
2022-09-28T03:31:05.785Z,6.22
2022-09-28T03:31:27.613Z,5.20
2022-09-28T03:31:50.047Z,4.22
2022-09-28T03:32:11.972Z,6.45
2022-09-28T03:32:33.910Z,5.28
2022-09-28T03:33:00.282Z,5.82
2022-09-28T03:33:23.142Z,4.88
2022-09-28T03:33:44.906Z,6.25
2022-09-28T03:34:06.570Z,3.95
2022-09-28T03:34:28.344Z,4.53
2022-09-28T03:34:50.208Z,4.63
2022-09-28T03:35:11.984Z,5.60
2022-09-28T03:35:33.920Z,5.60
2022-09-28T03:35:55.724Z,4.25
2022-09-28T03:36:17.521Z,3.78
2022-09-28T03:36:41.776Z,4.13
2022-09-28T03:37:03.608Z,5.05
2022-09-28T03:37:26.396Z,4.18
2022-09-28T03:37:48.208Z,3.83
2022-09-28T03:38:09.897Z,4.60
2022-09-28T03:38:31.711Z,2.78
2022-09-28T03:38:56.217Z,3.08
2022-09-28T03:39:18.301Z,2.38
2022-09-28T03:39:40.464Z,2.40
2022-09-28T03:40:03.316Z,2.95
2022-09-28T03:40:25.182Z,2.55
2022-09-28T03:41:13.121Z,4.13
2022-09-28T03:41:35.245Z,2.95
2022-09-28T03:41:56.954Z,3.53
2022-09-28T03:42:19.453Z,3.75
2022-09-28T03:42:41.252Z,2.72
2022-09-28T03:43:03.225Z,3.30
2022-09-28T03:43:26.241Z,2.53
2022-09-28T03:43:48.211Z,3.38
2022-09-28T03:44:09.906Z,3.78
2022-09-28T03:44:31.696Z,3.92
2022-09-28T03:44:53.634Z,3.05
2022-09-28T03:45:15.379Z,3.17
2022-09-28T03:45:37.375Z,2.60
2022-09-28T03:46:01.247Z,2.92
2022-09-28T03:46:23.008Z,2.20
2022-09-28T03:46:44.807Z,3.30
2022-09-28T03:47:08.662Z,3.03
2022-09-28T03:47:30.443Z,2.65
2022-09-28T03:47:52.275Z,2.90
2022-09-28T03:48:14.236Z,2.88
2022-09-28T03:48:36.478Z,2.72
2022-09-28T03:49:00.872Z,2.90
2022-09-28T03:49:22.720Z,3.00
2022-09-28T03:49:45.867Z,3.20
2022-09-28T03:50:08.145Z,2.08
2022-09-28T03:50:29.997Z,2.13
2022-09-28T03:50:56.284Z,3.25
2022-09-28T03:51:18.223Z,5.15
2022-09-28T03:51:39.923Z,2.42
2022-09-28T03:52:02.268Z,2.33
2022-09-28T03:52:24.827Z,3.65
2022-09-28T03:52:46.582Z,3.55
2022-09-28T03:53:08.324Z,2.53
2022-09-28T03:53:30.707Z,2.80
2022-09-28T03:53:52.808Z,3.08
2022-09-28T03:54:14.619Z,3.17
2022-09-28T03:54:36.315Z,3.15
2022-09-28T03:54:58.070Z,4.13
2022-09-28T03:55:21.089Z,2.15
2022-09-28T03:55:43.134Z,2.22
2022-09-28T03:56:06.985Z,2.35
2022-09-28T03:56:28.814Z,2.70
2022-09-28T03:56:52.142Z,2.10
2022-09-28T03:57:13.959Z,2.10
2022-09-28T03:57:35.791Z,2.15
2022-09-28T03:57:57.531Z,2.13
2022-09-28T03:58:21.097Z,2.60
2022-09-28T03:58:42.867Z,3.78
2022-09-28T03:59:05.439Z,4.05
2022-09-28T03:59:27.485Z,2.10
2022-09-28T03:59:49.879Z,1.85
2022-09-28T04:00:13.138Z,2.35
2022-09-28T04:00:34.970Z,2.00
2022-09-28T04:01:16.932Z,1.90
2022-09-28T04:01:39.690Z,2.10
2022-09-28T04:02:01.581Z,2.20
2022-09-28T04:02:23.469Z,2.78
2022-09-28T04:02:45.405Z,2.67
2022-09-28T04:03:07.438Z,2.78
2022-09-28T04:03:29.229Z,3.05
2022-09-28T04:03:57.370Z,2.97
2022-09-28T04:04:19.786Z,2.05
2022-09-28T04:04:42.007Z,2.17
2022-09-28T04:05:03.933Z,1.90
2022-09-28T04:05:25.693Z,2.15
2022-09-28T04:05:52.009Z,2.05
2022-09-28T04:06:14.637Z,2.72
2022-09-28T04:06:37.669Z,2.65
2022-09-28T04:06:59.727Z,2.38
2022-09-28T04:07:21.487Z,2.05
2022-09-28T04:07:43.493Z,1.90
2022-09-28T04:08:05.440Z,2.05
2022-09-28T04:08:27.645Z,1.88
2022-09-28T04:08:49.386Z,2.63
2022-09-28T04:09:12.366Z,3.45
2022-09-28T04:09:34.287Z,2.08
2022-09-28T04:09:56.136Z,2.33
2022-09-28T04:10:17.938Z,2.05
2022-09-28T04:10:39.650Z,2.38
2022-09-28T04:11:01.967Z,2.40
2022-09-28T04:11:24.313Z,1.73
2022-09-28T04:12:02.732Z,1.80
2022-09-28T04:12:25.840Z,2.10
2022-09-28T04:12:47.612Z,1.67
2022-09-28T04:13:09.689Z,2.35
2022-09-28T04:13:32.255Z,3.30
2022-09-28T04:13:54.136Z,1.88
2022-09-28T04:14:15.878Z,1.90
2022-09-28T04:14:37.728Z,2.00
2022-09-28T04:14:59.735Z,1.67
2022-09-28T04:15:21.806Z,1.70
2022-09-28T04:15:51.819Z,1.92
2022-09-28T04:16:13.741Z,2.35
2022-09-28T04:16:36.002Z,3.50
2022-09-28T04:16:58.012Z,3.42
2022-09-28T04:17:22.817Z,2.17
2022-09-28T04:17:44.922Z,2.28
2022-09-28T04:18:11.070Z,2.30
2022-09-28T04:18:33.589Z,2.33
2022-09-28T04:18:55.519Z,2.83
2022-09-28T04:19:17.530Z,2.75
2022-09-28T04:19:39.497Z,1.90
2022-09-28T04:20:06.079Z,2.10
2022-09-28T04:20:27.939Z,1.85
2022-09-28T04:21:03.795Z,1.90
2022-09-28T04:21:26.024Z,2.60
2022-09-28T04:21:48.621Z,2.13
2022-09-28T04:22:10.584Z,2.22
2022-09-28T04:22:32.583Z,2.40
2022-09-28T04:22:55.421Z,1.98
2022-09-28T04:23:17.328Z,2.38
2022-09-28T04:23:40.027Z,2.15
2022-09-28T04:24:02.053Z,1.90
2022-09-28T04:24:24.081Z,2.10
2022-09-28T04:24:47.489Z,2.40
2022-09-28T04:25:09.617Z,1.98
2022-09-28T04:25:31.329Z,1.70
2022-09-28T04:25:53.752Z,2.00
2022-09-28T04:26:21.423Z,2.33
2022-09-28T04:26:43.154Z,2.55
2022-09-28T04:27:25.277Z,2.33
2022-09-28T04:28:05.615Z,1.95
2022-09-28T04:28:56.526Z,2.60
2022-09-28T04:29:18.883Z,2.58
2022-09-28T04:29:43.127Z,2.85
2022-09-28T04:30:05.201Z,2.50
2022-09-28T04:30:26.965Z,2.30
2022-09-28T04:30:49.320Z,2.20
2022-09-28T04:31:22.577Z,2.30
2022-09-28T04:31:52.356Z,3.45
2022-09-28T04:32:14.242Z,2.72
2022-09-28T04:32:36.153Z,2.67
2022-09-28T04:32:57.985Z,2.45
2022-09-28T04:33:19.858Z,2.25
2022-09-28T04:33:41.679Z,3.13
2022-09-28T04:34:03.496Z,2.10
2022-09-28T04:34:25.613Z,2.30
2022-09-28T04:34:47.610Z,2.35
2022-09-28T04:35:11.735Z,3.13
2022-09-28T04:35:33.674Z,2.20
2022-09-28T04:35:55.459Z,2.22
2022-09-28T04:36:19.652Z,2.53
2022-09-28T04:36:41.750Z,2.50
2022-09-28T04:37:03.575Z,2.30
2022-09-28T04:37:25.383Z,2.70
2022-09-28T04:37:47.135Z,2.58
2022-09-28T04:38:08.915Z,2.90
2022-09-28T04:38:51.866Z,2.70
2022-09-28T04:39:14.262Z,2.78
2022-09-28T04:39:36.524Z,4.30
2022-09-28T04:39:58.445Z,3.30
2022-09-28T04:40:20.335Z,2.83
2022-09-28T04:40:42.152Z,2.83
2022-09-28T04:41:05.236Z,3.20
2022-09-28T04:41:27.017Z,3.03
2022-09-28T04:41:49.325Z,3.38
2022-09-28T04:42:11.212Z,2.75
2022-09-28T04:42:33.074Z,4.00
2022-09-28T04:42:56.101Z,4.78
2022-09-28T04:43:17.890Z,3.50
2022-09-28T04:43:39.667Z,3.45
2022-09-28T04:44:01.808Z,4.43
2022-09-28T04:44:23.727Z,3.05
2022-09-28T04:44:45.711Z,3.67
2022-09-28T04:45:08.235Z,3.40
2022-09-28T04:45:30.117Z,3.33
2022-09-28T04:45:52.248Z,3.95
2022-09-28T04:46:14.790Z,4.53
2022-09-28T04:46:36.649Z,3.13
2022-09-28T04:47:01.759Z,3.58
2022-09-28T04:47:27.149Z,4.60
2022-09-28T04:47:49.117Z,4.25
2022-09-28T04:48:11.091Z,4.32
2022-09-28T04:48:32.873Z,3.40
2022-09-28T04:48:54.675Z,21.15
2022-09-28T04:49:17.312Z,43.53
2022-09-28T04:49:39.113Z,43.40
2022-09-28T04:50:00.924Z,48.10
2022-09-28T04:50:22.745Z,25.08
2022-09-28T04:50:44.830Z,7.70
2022-09-28T04:51:06.984Z,6.35
2022-09-28T04:51:32.209Z,16.20
2022-09-28T04:51:54.025Z,58.83
2022-09-28T04:52:18.327Z,60.45
2022-09-28T04:52:40.876Z,19.90
2022-09-28T04:53:03.629Z,21.02
2022-09-28T04:53:26.867Z,11.85
2022-09-28T04:53:48.669Z,16.17
2022-09-28T04:54:10.830Z,41.50
2022-09-28T04:54:32.511Z,101.97
2022-09-28T04:54:54.261Z,113.70
2022-09-28T04:55:16.934Z,91.97
2022-09-28T04:55:39.060Z,140.10
2022-09-28T04:56:03.584Z,82.35
2022-09-28T04:56:25.634Z,59.63
2022-09-28T04:56:47.381Z,78.47
2022-09-28T04:57:09.503Z,77.15
2022-09-28T04:57:33.969Z,66.93
2022-09-28T04:57:56.826Z,64.93
2022-09-28T04:58:19.016Z,58.78
2022-09-28T04:58:41.848Z,110.65
2022-09-28T04:59:04.976Z,141.63
2022-09-28T04:59:27.413Z,125.82
2022-09-28T04:59:49.331Z,84.10
2022-09-28T05:00:11.789Z,75.10
2022-09-28T05:00:35.381Z,56.13
2022-09-28T05:01:02.944Z,20.90
2022-09-28T05:01:25.935Z,11.10
2022-09-28T05:01:47.824Z,17.45
2022-09-28T05:02:10.047Z,75.78
2022-09-28T05:07:18.814Z,21.13
2022-09-28T05:07:41.825Z,21.02
2022-09-28T05:08:03.553Z,30.60
2022-09-28T05:08:26.233Z,15.10
2022-09-28T05:08:48.329Z,6.82
2022-09-28T05:09:10.223Z,5.78
2022-09-28T05:09:36.163Z,27.35
2022-09-28T05:10:00.825Z,36.42
2022-09-28T05:10:23.638Z,35.00
2022-09-28T05:10:46.170Z,33.92
2022-09-28T05:11:11.629Z,25.60
2022-09-28T05:11:33.821Z,7.30
2022-09-28T05:11:55.505Z,13.43
2022-09-28T05:12:17.407Z,43.40
2022-09-28T05:12:39.269Z,43.22
2022-09-28T05:13:02.459Z,20.23
2022-09-28T05:13:25.361Z,18.70
2022-09-28T05:13:48.522Z,11.50
2022-09-28T05:14:12.413Z,5.50
2022-09-28T05:14:35.527Z,5.38
2022-09-28T05:14:57.259Z,6.35
2022-09-28T05:15:19.174Z,5.10
2022-09-28T05:15:43.210Z,5.93
2022-09-28T05:16:06.064Z,5.35
2022-09-28T05:16:28.782Z,6.07
2022-09-28T05:16:51.014Z,8.18
2022-09-28T05:17:12.946Z,8.32
2022-09-28T05:17:34.964Z,8.23
2022-09-28T05:17:56.701Z,8.75
2022-09-28T05:18:20.821Z,8.02
2022-09-28T05:18:42.836Z,6.50
2022-09-28T05:19:06.228Z,6.28
2022-09-28T05:19:28.039Z,6.40
2022-09-28T05:19:49.938Z,6.93
2022-09-28T05:20:11.935Z,7.60
2022-09-28T05:20:34.949Z,6.75
2022-09-28T05:20:56.773Z,6.47
2022-09-28T05:21:20.285Z,6.25
2022-09-28T05:21:46.873Z,5.22
2022-09-28T05:22:13.968Z,6.25
2022-09-28T05:22:35.947Z,8.68
2022-09-28T05:22:58.167Z,6.63
2022-09-28T05:23:20.141Z,8.05
2022-09-28T05:23:47.243Z,10.02
2022-09-28T05:24:10.384Z,8.52
2022-09-28T05:24:32.189Z,8.95
2022-09-28T05:24:55.132Z,7.18
2022-09-28T05:25:17.095Z,8.43
2022-09-28T05:25:43.103Z,10.23
2022-09-28T05:26:05.198Z,8.20
2022-09-28T05:26:27.647Z,13.38
2022-09-28T05:26:49.750Z,20.42
2022-09-28T05:27:11.670Z,15.68
2022-09-28T05:27:33.682Z,13.52
2022-09-28T05:27:57.077Z,16.88
2022-09-28T05:28:27.998Z,11.77
2022-09-28T05:28:49.895Z,12.35
2022-09-28T05:29:16.652Z,11.13
2022-09-28T05:29:38.617Z,7.78
2022-09-28T05:30:00.583Z,9.38
2022-09-28T05:30:23.278Z,7.78
2022-09-28T05:30:45.293Z,6.45
2022-09-28T05:31:07.153Z,7.55
2022-09-28T05:31:29.229Z,7.47
2022-09-28T05:31:51.980Z,5.28
2022-09-28T05:32:14.029Z,7.13
2022-09-28T05:32:39.628Z,5.95
2022-09-28T05:33:02.416Z,6.07
2022-09-28T05:33:25.087Z,5.72
2022-09-28T05:33:47.076Z,6.03
2022-09-28T05:34:08.902Z,5.30
2022-09-28T05:34:30.923Z,4.88
2022-09-28T05:34:53.412Z,5.40
2022-09-28T05:35:15.672Z,5.50
2022-09-28T05:35:38.057Z,5.65
2022-09-28T05:36:01.575Z,4.88
2022-09-28T05:36:26.905Z,4.75
2022-09-28T05:36:49.224Z,6.38
2022-09-28T05:37:12.850Z,11.52
2022-09-28T05:37:36.444Z,10.57
2022-09-28T05:38:04.559Z,9.02
2022-09-28T05:38:26.630Z,14.15
2022-09-28T05:38:48.476Z,49.58
2022-09-28T05:39:10.910Z,98.32
2022-09-28T05:39:32.964Z,48.05
2022-09-28T05:39:55.073Z,24.83
2022-09-28T05:40:17.243Z,19.83
2022-09-28T05:40:39.265Z,37.67
2022-09-28T05:41:05.677Z,51.13
2022-09-28T05:41:28.241Z,62.53
2022-09-28T05:41:50.104Z,41.97
2022-09-28T05:42:13.002Z,29.73
2022-09-28T05:42:34.798Z,52.17
2022-09-28T05:43:00.543Z,72.68
2022-09-28T05:43:22.889Z,228.35
2022-09-28T05:43:45.958Z,154.43
2022-09-28T05:44:07.742Z,75.40
2022-09-28T05:44:34.721Z,85.33
2022-09-28T05:44:58.521Z,97.57
2022-09-28T05:45:20.500Z,60.60
2022-09-28T05:45:43.230Z,84.85
2022-09-28T05:46:06.048Z,51.80
2022-09-28T05:46:28.059Z,27.38
2022-09-28T05:47:02.766Z,28.00
2022-09-28T05:47:28.733Z,33.95
2022-09-28T05:47:50.556Z,97.75
2022-09-28T05:48:12.881Z,147.75
2022-09-28T05:48:34.769Z,163.45
2022-09-28T05:48:56.916Z,279.95